PWSweather.com
Personal Weather Stations
Station Observations
BARMORENO
El Ranal, Torre Del CampoES 23640

El RanalTorre Del CampoES 23640

Lat: 37.7683675, Lon: -3.9027072

Elevation: 2198.162

Station Type: PCE-FWS 20

http://www.bartolomemoreno.com/tiempo

Latest ConditionsUpdated 12:00:05 PM GMT+01:01 Wednesday, Dec 12, 2018
Currently Today's Max Today's Min Today's Average
Temperature 52.5°F11.4°C 52.5°F11.4°C 47.3°F8.5°C 49.8°F9.9°C
Dew Point 48.8°F9.3°C 49.7°F9.8°C 44.2°F6.8°C 47.4°F8.6°C
Winds 2.3 mph NNE3.7 kmh NNE 5.4 mph -8.7 kmh - - 1.8 mph 2.9 kmh
Wind Gusts 4.5 mph7.2 kmh 9.2 mph14.8 kmh - -
Humidity 87% 95% 85% 91%
Pressure 30.11 in1019.6 mb 30.12 in1020.0 mb 30.08 in1018.6 mb -
Hour Temp Dew Point Humidity Winds Wind Gusts Pressure Precip Precip Rate Daily Precip Total
12:00 PM 52.5°F11.4°C 48.8°F9.3°C 87% 2.3 mph NNE3.7 kmh NNE 4.5 mph7.2 kmh 30.11 in1019.6 mb 0.00 in0.0 mm 0.00 in0.0 mm 0.00 in0.0 mm
11:55 AM 52.5°F11.4°C 49.1°F9.5°C 88% 1.6 mph NNE2.6 kmh NNE 4.5 mph7.2 kmh 30.10 in1019.3 mb 0.00 in0.0 mm 0.00 in0.0 mm 0.00 in0.0 mm
11:50 AM 52.5°F11.4°C 49.7°F9.8°C 90% 1.6 mph N2.6 kmh N 4.5 mph7.2 kmh 30.11 in1019.6 mb 0.00 in0.0 mm 0.00 in0.0 mm 0.00 in0.0 mm
11:45 AM 52.3°F11.3°C 49.5°F9.7°C 90% 1.8 mph N2.9 kmh N 3.8 mph6.1 kmh 30.10 in1019.3 mb 0.00 in0.0 mm 0.00 in0.0 mm 0.00 in0.0 mm
11:40 AM 52.2°F11.2°C 49.3°F9.6°C 90% 1.7 mph N2.7 kmh N 3.8 mph6.1 kmh 30.11 in1019.6 mb 0.00 in0.0 mm 0.00 in0.0 mm 0.00 in0.0 mm
11:35 AM 52.0°F11.1°C 49.1°F9.5°C 90% 1.3 mph NNW2.1 kmh NNW 3.1 mph5.0 kmh 30.11 in1019.6 mb 0.00 in0.0 mm 0.00 in0.0 mm 0.00 in0.0 mm
11:30 AM 51.8°F11.0°C 49.0°F9.4°C 90% 1.5 mph NNW2.4 kmh NNW 3.8 mph6.1 kmh 30.11 in1019.6 mb 0.00 in0.0 mm 0.00 in0.0 mm 0.00 in0.0 mm
11:25 AM 51.8°F11.0°C 49.0°F9.4°C 90% 1.6 mph NNW2.6 kmh NNW 3.8 mph6.1 kmh 30.11 in1019.6 mb 0.00 in0.0 mm 0.00 in0.0 mm 0.00 in0.0 mm
11:20 AM 51.6°F10.9°C 49.1°F9.5°C 91% 1.5 mph N2.4 kmh N 3.8 mph6.1 kmh 30.11 in1019.6 mb 0.00 in0.0 mm 0.00 in0.0 mm 0.00 in0.0 mm
11:15 AM 51.6°F10.9°C 49.4°F9.7°C 92% 1.7 mph NNE2.7 kmh NNE 3.8 mph6.1 kmh 30.11 in1019.6 mb 0.00 in0.0 mm 0.00 in0.0 mm 0.00 in0.0 mm
11:10 AM 51.4°F10.8°C 48.9°F9.4°C 91% 2.1 mph NNE3.4 kmh NNE 3.8 mph6.1 kmh 30.11 in1019.6 mb 0.00 in0.0 mm 0.00 in0.0 mm 0.00 in0.0 mm
11:05 AM 51.3°F10.7°C 49.0°F9.4°C 92% 2.5 mph N4.0 kmh N 4.5 mph7.2 kmh 30.11 in1019.6 mb 0.00 in0.0 mm 0.00 in0.0 mm 0.00 in0.0 mm
11:00 AM 51.3°F10.7°C 49.0°F9.4°C 92% 2.3 mph NNE3.7 kmh NNE 5.4 mph8.7 kmh 30.11 in1019.6 mb 0.00 in0.0 mm 0.00 in0.0 mm 0.00 in0.0 mm
10:55 AM 51.3°F10.7°C 48.7°F9.3°C 91% 2.0 mph NE3.2 kmh NE 5.4 mph8.7 kmh 30.11 in1019.6 mb 0.00 in0.0 mm 0.00 in0.0 mm 0.00 in0.0 mm
10:50 AM 51.3°F10.7°C 48.7°F9.3°C 91% 1.8 mph ENE2.9 kmh ENE 3.8 mph6.1 kmh 30.11 in1019.6 mb 0.00 in0.0 mm 0.00 in0.0 mm 0.00 in0.0 mm
10:45 AM 51.3°F10.7°C 48.4°F9.1°C 90% 2.7 mph NE4.3 kmh NE 6.0 mph9.7 kmh 30.11 in1019.6 mb 0.00 in0.0 mm 0.00 in0.0 mm 0.00 in0.0 mm
10:40 AM 51.4°F10.8°C 48.3°F9.1°C 89% 3.9 mph NE6.3 kmh NE 6.9 mph11.1 kmh 30.11 in1019.6 mb 0.00 in0.0 mm 0.00 in0.0 mm 0.00 in0.0 mm
10:35 AM 51.8°F11.0°C 47.8°F8.8°C 86% 3.2 mph NE5.1 kmh NE 6.9 mph11.1 kmh 30.11 in1019.6 mb 0.00 in0.0 mm 0.00 in0.0 mm 0.00 in0.0 mm
10:30 AM 52.0°F11.1°C 47.6°F8.7°C 85% 2.4 mph NE3.9 kmh NE 5.4 mph8.7 kmh 30.11 in1019.6 mb 0.00 in0.0 mm 0.00 in0.0 mm 0.00 in0.0 mm
10:25 AM 51.8°F11.0°C 47.4°F8.6°C 85% 1.9 mph SSE3.1 kmh SSE 5.4 mph8.7 kmh 30.11 in1019.6 mb 0.00 in0.0 mm 0.00 in0.0 mm 0.00 in0.0 mm
10:20 AM 51.6°F10.9°C 48.2°F9.0°C 88% 1.0 mph S1.6 kmh S 5.4 mph8.7 kmh 30.11 in1019.6 mb 0.00 in0.0 mm 0.00 in0.0 mm 0.00 in0.0 mm
10:15 AM 51.6°F10.9°C 48.2°F9.0°C 88% 0.9 mph S1.4 kmh S 2.2 mph3.5 kmh 30.11 in1019.6 mb 0.00 in0.0 mm 0.00 in0.0 mm 0.00 in0.0 mm
10:10 AM 51.4°F10.8°C 48.0°F8.9°C 88% 1.0 mph S1.6 kmh S 2.2 mph3.5 kmh 30.10 in1019.3 mb 0.00 in0.0 mm 0.00 in0.0 mm 0.00 in0.0 mm
10:05 AM 51.4°F10.8°C 48.3°F9.1°C 89% 0.7 mph SSE1.1 kmh SSE 2.2 mph3.5 kmh 30.10 in1019.3 mb 0.00 in0.0 mm 0.00 in0.0 mm 0.00 in0.0 mm
10:00 AM 51.4°F10.8°C 48.3°F9.1°C 89% 0.3 mph ESE0.5 kmh ESE 1.6 mph2.6 kmh 30.11 in1019.6 mb 0.00 in0.0 mm 0.00 in0.0 mm 0.00 in0.0 mm
09:55 AM 51.4°F10.8°C 48.0°F8.9°C 88% 0.4 mph NE0.6 kmh NE 1.6 mph2.6 kmh 30.11 in1019.6 mb 0.00 in0.0 mm 0.00 in0.0 mm 0.00 in0.0 mm
09:50 AM 51.4°F10.8°C 48.0°F8.9°C 88% 0.9 mph N1.4 kmh N 3.1 mph5.0 kmh 30.11 in1019.6 mb 0.00 in0.0 mm 0.00 in0.0 mm 0.00 in0.0 mm
09:45 AM 51.4°F10.8°C 48.0°F8.9°C 88% 1.3 mph N2.1 kmh N 3.1 mph5.0 kmh 30.11 in1019.6 mb 0.00 in0.0 mm 0.00 in0.0 mm 0.00 in0.0 mm
09:40 AM 51.6°F10.9°C 47.9°F8.8°C 87% 1.5 mph NNE2.4 kmh NNE 3.1 mph5.0 kmh 30.11 in1019.6 mb 0.00 in0.0 mm 0.00 in0.0 mm 0.00 in0.0 mm
09:35 AM 51.8°F11.0°C 47.8°F8.8°C 86% 2.0 mph NNE3.2 kmh NNE 4.5 mph7.2 kmh 30.11 in1019.6 mb 0.00 in0.0 mm 0.00 in0.0 mm 0.00 in0.0 mm
09:30 AM 51.8°F11.0°C 47.8°F8.8°C 86% 1.9 mph N3.1 kmh N 4.5 mph7.2 kmh 30.11 in1019.6 mb 0.00 in0.0 mm 0.00 in0.0 mm 0.00 in0.0 mm
09:25 AM 51.8°F11.0°C 47.8°F8.8°C 86% 1.8 mph NE2.9 kmh NE 4.5 mph7.2 kmh 30.11 in1019.6 mb 0.00 in0.0 mm 0.00 in0.0 mm 0.00 in0.0 mm
09:20 AM 51.6°F10.9°C 48.2°F9.0°C 88% 1.9 mph ENE3.1 kmh ENE 4.5 mph7.2 kmh 30.11 in1019.6 mb 0.00 in0.0 mm 0.00 in0.0 mm 0.00 in0.0 mm
09:15 AM 51.3°F10.7°C 48.4°F9.1°C 90% 1.3 mph NE2.1 kmh NE 3.1 mph5.0 kmh 30.10 in1019.3 mb 0.00 in0.0 mm 0.00 in0.0 mm 0.00 in0.0 mm
09:10 AM 51.1°F10.6°C 48.5°F9.2°C 91% 0.6 mph NE1.0 kmh NE 3.1 mph5.0 kmh 30.10 in1019.3 mb 0.00 in0.0 mm 0.00 in0.0 mm 0.00 in0.0 mm
09:05 AM 50.9°F10.5°C 48.7°F9.3°C 92% 0.2 mph NE0.3 kmh NE 2.2 mph3.5 kmh 30.10 in1019.3 mb 0.00 in0.0 mm 0.00 in0.0 mm 0.00 in0.0 mm
09:00 AM 50.7°F10.4°C 48.5°F9.2°C 92% 0.7 mph ENE1.1 kmh ENE 3.1 mph5.0 kmh 30.09 in1019.0 mb 0.00 in0.0 mm 0.00 in0.0 mm 0.00 in0.0 mm
08:55 AM 50.5°F10.3°C 48.6°F9.2°C 93% 1.0 mph SE1.6 kmh SE 3.1 mph5.0 kmh 30.10 in1019.3 mb 0.00 in0.0 mm 0.00 in0.0 mm 0.00 in0.0 mm
08:50 AM 50.4°F10.2°C 48.4°F9.1°C 93% 0.8 mph SE1.3 kmh SE 3.1 mph5.0 kmh 30.09 in1019.0 mb 0.00 in0.0 mm 0.00 in0.0 mm 0.00 in0.0 mm
08:45 AM 50.2°F10.1°C 48.2°F9.0°C 93% 0.3 mph SE0.5 kmh SE 2.2 mph3.5 kmh 30.09 in1019.0 mb 0.00 in0.0 mm 0.00 in0.0 mm 0.00 in0.0 mm
08:40 AM 50.2°F10.1°C 48.2°F9.0°C 93% 0.1 mph SSE0.2 kmh SSE 1.6 mph2.6 kmh 30.10 in1019.3 mb 0.00 in0.0 mm 0.00 in0.0 mm 0.00 in0.0 mm
08:35 AM 50.0°F10.0°C 48.1°F8.9°C 93% 0.4 mph S0.6 kmh S 2.2 mph3.5 kmh 30.10 in1019.3 mb 0.00 in0.0 mm 0.00 in0.0 mm 0.00 in0.0 mm
08:30 AM 50.0°F10.0°C 48.3°F9.1°C 94% 0.7 mph S1.1 kmh S 2.2 mph3.5 kmh 30.09 in1019.0 mb 0.00 in0.0 mm 0.00 in0.0 mm 0.00 in0.0 mm
08:25 AM 50.0°F10.0°C 48.3°F9.1°C 94% 0.5 mph S0.8 kmh S 2.2 mph3.5 kmh 30.10 in1019.3 mb 0.00 in0.0 mm 0.00 in0.0 mm 0.00 in0.0 mm
08:20 AM 50.0°F10.0°C 48.3°F9.1°C 94% 0.6 mph S1.0 kmh S 2.2 mph3.5 kmh 30.10 in1019.3 mb 0.00 in0.0 mm 0.00 in0.0 mm 0.00 in0.0 mm
08:15 AM 50.0°F10.0°C 48.3°F9.1°C 94% 0.7 mph SE1.1 kmh SE 3.1 mph5.0 kmh 30.10 in1019.3 mb 0.00 in0.0 mm 0.00 in0.0 mm 0.00 in0.0 mm
08:10 AM 50.0°F10.0°C 48.3°F9.1°C 94% 0.7 mph SE1.1 kmh SE 3.1 mph5.0 kmh 30.10 in1019.3 mb 0.00 in0.0 mm 0.00 in0.0 mm 0.00 in0.0 mm
08:05 AM 49.8°F9.9°C 48.4°F9.1°C 95% 0.9 mph SSE1.4 kmh SSE 3.1 mph5.0 kmh 30.10 in1019.3 mb 0.00 in0.0 mm 0.00 in0.0 mm 0.00 in0.0 mm
08:00 AM 49.8°F9.9°C 48.4°F9.1°C 95% 0.8 mph S1.3 kmh S 3.1 mph5.0 kmh 30.10 in1019.3 mb 0.00 in0.0 mm 0.00 in0.0 mm 0.00 in0.0 mm
07:55 AM 49.8°F9.9°C 48.4°F9.1°C 95% 0.5 mph S0.8 kmh S 2.2 mph3.5 kmh 30.10 in1019.3 mb 0.00 in0.0 mm 0.00 in0.0 mm 0.00 in0.0 mm
07:50 AM 49.8°F9.9°C 48.4°F9.1°C 95% 0.4 mph S0.6 kmh S 2.2 mph3.5 kmh 30.10 in1019.3 mb 0.00 in0.0 mm 0.00 in0.0 mm 0.00 in0.0 mm
07:45 AM 49.8°F9.9°C 48.4°F9.1°C 95% 0.2 mph S0.3 kmh S 1.6 mph2.6 kmh 30.10 in1019.3 mb 0.00 in0.0 mm 0.00 in0.0 mm 0.00 in0.0 mm
07:40 AM 49.8°F9.9°C 48.4°F9.1°C 95% 0.2 mph S0.3 kmh S 1.6 mph2.6 kmh 30.10 in1019.3 mb 0.00 in0.0 mm 0.00 in0.0 mm 0.00 in0.0 mm
07:35 AM 49.6°F9.8°C 48.3°F9.1°C 95% Calm Calm 0.7 mph1.1 kmh 30.10 in1019.3 mb 0.00 in0.0 mm 0.00 in0.0 mm 0.00 in0.0 mm
07:30 AM 49.6°F9.8°C 48.3°F9.1°C 95% 0.1 mph S0.2 kmh S 1.6 mph2.6 kmh 30.10 in1019.3 mb 0.00 in0.0 mm 0.00 in0.0 mm 0.00 in0.0 mm
07:25 AM 49.6°F9.8°C 48.3°F9.1°C 95% 0.1 mph S0.2 kmh S 1.6 mph2.6 kmh 30.10 in1019.3 mb 0.00 in0.0 mm 0.00 in0.0 mm 0.00 in0.0 mm
07:20 AM 49.5°F9.7°C 48.1°F8.9°C 95% Calm Calm 0.7 mph1.1 kmh 30.10 in1019.3 mb 0.00 in0.0 mm 0.00 in0.0 mm 0.00 in0.0 mm
07:15 AM 49.5°F9.7°C 48.1°F8.9°C 95% 0.2 mph S0.3 kmh S 2.2 mph3.5 kmh 30.10 in1019.3 mb 0.00 in0.0 mm 0.00 in0.0 mm 0.00 in0.0 mm
07:10 AM 49.5°F9.7°C 48.1°F8.9°C 95% 0.8 mph S1.3 kmh S 3.1 mph5.0 kmh 30.10 in1019.3 mb 0.00 in0.0 mm 0.00 in0.0 mm 0.00 in0.0 mm
07:05 AM 49.5°F9.7°C 48.1°F8.9°C 95% 1.0 mph S1.6 kmh S 3.1 mph5.0 kmh 30.10 in1019.3 mb 0.00 in0.0 mm 0.00 in0.0 mm 0.00 in0.0 mm
07:00 AM 49.5°F9.7°C 48.1°F8.9°C 95% 0.5 mph SW0.8 kmh SW 2.2 mph3.5 kmh 30.10 in1019.3 mb 0.00 in0.0 mm 0.00 in0.0 mm 0.00 in0.0 mm
06:55 AM 49.3°F9.6°C 47.9°F8.8°C 95% 1.1 mph SW1.8 kmh SW 3.8 mph6.1 kmh 30.10 in1019.3 mb 0.00 in0.0 mm 0.00 in0.0 mm 0.00 in0.0 mm
06:50 AM 49.1°F9.5°C 47.7°F8.7°C 95% 1.9 mph S3.1 kmh S 3.8 mph6.1 kmh 30.10 in1019.3 mb 0.00 in0.0 mm 0.00 in0.0 mm 0.00 in0.0 mm
06:45 AM 49.1°F9.5°C 47.5°F8.6°C 94% 1.7 mph S2.7 kmh S 3.8 mph6.1 kmh 30.09 in1019.0 mb 0.00 in0.0 mm 0.00 in0.0 mm 0.00 in0.0 mm
06:40 AM 49.1°F9.5°C 47.5°F8.6°C 94% 2.3 mph S3.7 kmh S 4.5 mph7.2 kmh 30.09 in1019.0 mb 0.00 in0.0 mm 0.00 in0.0 mm 0.00 in0.0 mm
06:35 AM 49.3°F9.6°C 47.6°F8.7°C 94% 2.3 mph S3.7 kmh S 4.5 mph7.2 kmh 30.09 in1019.0 mb 0.00 in0.0 mm 0.00 in0.0 mm 0.00 in0.0 mm
06:30 AM 49.5°F9.7°C 47.8°F8.8°C 94% 1.0 mph SSE1.6 kmh SSE 3.1 mph5.0 kmh 30.09 in1019.0 mb 0.00 in0.0 mm 0.00 in0.0 mm 0.00 in0.0 mm
06:25 AM 49.3°F9.6°C 47.6°F8.7°C 94% 0.2 mph SE0.3 kmh SE 1.6 mph2.6 kmh 30.10 in1019.3 mb 0.00 in0.0 mm 0.00 in0.0 mm 0.00 in0.0 mm
06:20 AM 49.3°F9.6°C 47.6°F8.7°C 94% 0.1 mph NNE0.2 kmh NNE 2.2 mph3.5 kmh 30.10 in1019.3 mb 0.00 in0.0 mm 0.00 in0.0 mm 0.00 in0.0 mm
06:15 AM 49.3°F9.6°C 47.3°F8.5°C 93% 0.2 mph N0.3 kmh N 2.2 mph3.5 kmh 30.10 in1019.3 mb 0.00 in0.0 mm 0.00 in0.0 mm 0.00 in0.0 mm
06:10 AM 49.1°F9.5°C 47.2°F8.4°C 93% 0.5 mph N0.8 kmh N 2.2 mph3.5 kmh 30.09 in1019.0 mb 0.00 in0.0 mm 0.00 in0.0 mm 0.00 in0.0 mm
06:05 AM 49.1°F9.5°C 47.2°F8.4°C 93% 0.5 mph N0.8 kmh N 2.2 mph3.5 kmh 30.09 in1019.0 mb 0.00 in0.0 mm 0.00 in0.0 mm 0.00 in0.0 mm
06:00 AM 48.7°F9.3°C 46.5°F8.1°C 92% 0.3 mph SE0.5 kmh SE 2.2 mph3.5 kmh 30.09 in1019.0 mb 0.00 in0.0 mm 0.00 in0.0 mm 0.00 in0.0 mm
05:55 AM 48.6°F9.2°C 46.3°F7.9°C 92% 0.2 mph S0.3 kmh S 1.6 mph2.6 kmh 30.08 in1018.6 mb 0.00 in0.0 mm 0.00 in0.0 mm 0.00 in0.0 mm
05:50 AM 48.6°F9.2°C 46.3°F7.9°C 92% 0.3 mph S0.5 kmh S 2.2 mph3.5 kmh 30.08 in1018.6 mb 0.00 in0.0 mm 0.00 in0.0 mm 0.00 in0.0 mm
05:45 AM 48.4°F9.1°C 46.2°F7.9°C 92% 0.6 mph SSW1.0 kmh SSW 3.1 mph5.0 kmh 30.08 in1018.6 mb 0.00 in0.0 mm 0.00 in0.0 mm 0.00 in0.0 mm
05:40 AM 48.4°F9.1°C 46.2°F7.9°C 92% 0.5 mph S0.8 kmh S 3.1 mph5.0 kmh 30.09 in1019.0 mb 0.00 in0.0 mm 0.00 in0.0 mm 0.00 in0.0 mm
05:35 AM 48.2°F9.0°C 46.0°F7.8°C 92% 1.1 mph S1.8 kmh S 3.8 mph6.1 kmh 30.09 in1019.0 mb 0.00 in0.0 mm 0.00 in0.0 mm 0.00 in0.0 mm
05:30 AM 47.8°F8.8°C 45.6°F7.6°C 92% 1.6 mph S2.6 kmh S 3.8 mph6.1 kmh 30.09 in1019.0 mb 0.00 in0.0 mm 0.00 in0.0 mm 0.00 in0.0 mm
05:25 AM 47.7°F8.7°C 45.5°F7.5°C 92% 1.1 mph S1.8 kmh S 2.2 mph3.5 kmh 30.09 in1019.0 mb 0.00 in0.0 mm 0.00 in0.0 mm 0.00 in0.0 mm
05:20 AM 47.7°F8.7°C 45.5°F7.5°C 92% 1.7 mph S2.7 kmh S 5.4 mph8.7 kmh 30.09 in1019.0 mb 0.00 in0.0 mm 0.00 in0.0 mm 0.00 in0.0 mm
05:15 AM 47.5°F8.6°C 45.0°F7.2°C 91% 2.9 mph S4.7 kmh S 6.0 mph9.7 kmh 30.09 in1019.0 mb 0.00 in0.0 mm 0.00 in0.0 mm 0.00 in0.0 mm
05:10 AM 47.3°F8.5°C 44.8°F7.1°C 91% 3.0 mph S4.8 kmh S 6.0 mph9.7 kmh 30.09 in1019.0 mb 0.00 in0.0 mm 0.00 in0.0 mm 0.00 in0.0 mm
05:05 AM 47.3°F8.5°C 44.8°F7.1°C 91% 2.9 mph S4.7 kmh S 6.0 mph9.7 kmh 30.09 in1019.0 mb 0.00 in0.0 mm 0.00 in0.0 mm 0.00 in0.0 mm
05:00 AM 47.3°F8.5°C 44.5°F6.9°C 90% 3.6 mph S5.8 kmh S 6.9 mph11.1 kmh 30.09 in1019.0 mb 0.00 in0.0 mm 0.00 in0.0 mm 0.00 in0.0 mm
04:55 AM 47.3°F8.5°C 44.2°F6.8°C 89% 3.8 mph S6.1 kmh S 6.9 mph11.1 kmh 30.09 in1019.0 mb 0.00 in0.0 mm 0.00 in0.0 mm 0.00 in0.0 mm
04:50 AM 47.5°F8.6°C 44.4°F6.9°C 89% 3.1 mph S5.0 kmh S 6.0 mph9.7 kmh 30.09 in1019.0 mb 0.00 in0.0 mm 0.00 in0.0 mm 0.00 in0.0 mm
04:45 AM 48.0°F8.9°C 44.9°F7.2°C 89% 2.5 mph S4.0 kmh S 5.4 mph8.7 kmh 30.09 in1019.0 mb 0.00 in0.0 mm 0.00 in0.0 mm 0.00 in0.0 mm
04:40 AM 48.4°F9.1°C 45.0°F7.2°C 88% 2.3 mph S3.7 kmh S 6.9 mph11.1 kmh 30.09 in1019.0 mb 0.00 in0.0 mm 0.00 in0.0 mm 0.00 in0.0 mm
04:35 AM 48.4°F9.1°C 45.0°F7.2°C 88% 3.4 mph SSE5.5 kmh SSE 6.9 mph11.1 kmh 30.08 in1018.6 mb 0.00 in0.0 mm 0.00 in0.0 mm 0.00 in0.0 mm
04:30 AM 48.4°F9.1°C 44.7°F7.1°C 87% 4.3 mph S6.9 kmh S 6.9 mph11.1 kmh 30.08 in1018.6 mb 0.00 in0.0 mm 0.00 in0.0 mm 0.00 in0.0 mm
04:25 AM 48.6°F9.2°C 44.9°F7.2°C 87% 3.9 mph S6.3 kmh S 6.9 mph11.1 kmh 30.08 in1018.6 mb 0.00 in0.0 mm 0.00 in0.0 mm 0.00 in0.0 mm
04:20 AM 48.7°F9.3°C 45.0°F7.2°C 87% 4.5 mph S7.2 kmh S 8.3 mph13.4 kmh 30.09 in1019.0 mb 0.00 in0.0 mm 0.00 in0.0 mm 0.00 in0.0 mm
04:15 AM 48.7°F9.3°C 45.0°F7.2°C 87% 5.4 mph S8.7 kmh S 9.2 mph14.8 kmh 30.09 in1019.0 mb 0.00 in0.0 mm 0.00 in0.0 mm 0.00 in0.0 mm
04:10 AM 48.9°F9.4°C 45.2°F7.3°C 87% 5.4 mph S8.7 kmh S 9.2 mph14.8 kmh 30.08 in1018.6 mb 0.00 in0.0 mm 0.00 in0.0 mm 0.00 in0.0 mm
04:05 AM 49.3°F9.6°C 45.3°F7.4°C 86% 5.0 mph S8.0 kmh S 8.3 mph13.4 kmh 30.09 in1019.0 mb 0.00 in0.0 mm 0.00 in0.0 mm 0.00 in0.0 mm
04:00 AM 49.6°F9.8°C 45.6°F7.6°C 86% 4.8 mph S7.7 kmh S 7.6 mph12.2 kmh 30.09 in1019.0 mb 0.00 in0.0 mm 0.00 in0.0 mm 0.00 in0.0 mm
03:55 AM 50.2°F10.1°C 45.9°F7.7°C 85% 3.9 mph S6.3 kmh S 7.6 mph12.2 kmh 30.09 in1019.0 mb 0.00 in0.0 mm 0.00 in0.0 mm 0.00 in0.0 mm
03:50 AM 50.5°F10.3°C 46.5°F8.1°C 86% 3.2 mph S5.1 kmh S 6.9 mph11.1 kmh 30.09 in1019.0 mb 0.00 in0.0 mm 0.00 in0.0 mm 0.00 in0.0 mm
03:45 AM 50.7°F10.4°C 47.0°F8.3°C 87% 3.1 mph S5.0 kmh S 6.9 mph11.1 kmh 30.09 in1019.0 mb 0.00 in0.0 mm 0.00 in0.0 mm 0.00 in0.0 mm
03:40 AM 50.7°F10.4°C 47.3°F8.5°C 88% 3.1 mph S5.0 kmh S 6.0 mph9.7 kmh 30.09 in1019.0 mb 0.00 in0.0 mm 0.00 in0.0 mm 0.00 in0.0 mm
03:30 AM 50.9°F10.5°C 48.7°F9.3°C 92% 2.2 mph S3.5 kmh S 5.4 mph8.7 kmh 30.09 in1019.0 mb 0.00 in0.0 mm 0.00 in0.0 mm 0.00 in0.0 mm
03:20 AM 50.7°F10.4°C 49.1°F9.5°C 94% 1.9 mph S3.1 kmh S 3.8 mph6.1 kmh 30.09 in1019.0 mb 0.00 in0.0 mm 0.00 in0.0 mm 0.00 in0.0 mm
03:15 AM 50.7°F10.4°C 49.1°F9.5°C 94% 2.3 mph S3.7 kmh S 3.8 mph6.1 kmh 30.09 in1019.0 mb 0.00 in0.0 mm 0.00 in0.0 mm 0.00 in0.0 mm
03:10 AM 50.7°F10.4°C 49.1°F9.5°C 94% 3.2 mph S5.1 kmh S 5.4 mph8.7 kmh 30.09 in1019.0 mb 0.00 in0.0 mm 0.00 in0.0 mm 0.00 in0.0 mm
03:05 AM 50.5°F10.3°C 48.9°F9.4°C 94% 3.1 mph SSE5.0 kmh SSE 5.4 mph8.7 kmh 30.08 in1018.6 mb 0.00 in0.0 mm 0.00 in0.0 mm 0.00 in0.0 mm
03:00 AM 50.4°F10.2°C 48.7°F9.3°C 94% 2.6 mph S4.2 kmh S 5.4 mph8.7 kmh 30.09 in1019.0 mb 0.00 in0.0 mm 0.00 in0.0 mm 0.00 in0.0 mm
02:55 AM 50.4°F10.2°C 48.7°F9.3°C 94% 3.0 mph S4.8 kmh S 5.4 mph8.7 kmh 30.09 in1019.0 mb 0.00 in0.0 mm 0.00 in0.0 mm 0.00 in0.0 mm
02:50 AM 50.2°F10.1°C 48.2°F9.0°C 93% 2.6 mph S4.2 kmh S 5.4 mph8.7 kmh 30.09 in1019.0 mb 0.00 in0.0 mm 0.00 in0.0 mm 0.00 in0.0 mm
02:45 AM 50.2°F10.1°C 48.2°F9.0°C 93% 2.2 mph S3.5 kmh S 3.8 mph6.1 kmh 30.09 in1019.0 mb 0.00 in0.0 mm 0.00 in0.0 mm 0.00 in0.0 mm
02:40 AM 50.2°F10.1°C 48.2°F9.0°C 93% 1.4 mph S2.3 kmh S 3.8 mph6.1 kmh 30.09 in1019.0 mb 0.00 in0.0 mm 0.00 in0.0 mm 0.00 in0.0 mm
02:35 AM 50.2°F10.1°C 48.2°F9.0°C 93% 1.1 mph S1.8 kmh S 3.8 mph6.1 kmh 30.10 in1019.3 mb 0.00 in0.0 mm 0.00 in0.0 mm 0.00 in0.0 mm
02:30 AM 50.0°F10.0°C 48.1°F8.9°C 93% 1.8 mph S2.9 kmh S 3.8 mph6.1 kmh 30.10 in1019.3 mb 0.00 in0.0 mm 0.00 in0.0 mm 0.00 in0.0 mm
02:25 AM 50.0°F10.0°C 48.1°F8.9°C 93% 2.0 mph S3.2 kmh S 3.8 mph6.1 kmh 30.10 in1019.3 mb 0.00 in0.0 mm 0.00 in0.0 mm 0.00 in0.0 mm
02:20 AM 49.8°F9.9°C 48.2°F9.0°C 94% 2.0 mph S3.2 kmh S 3.8 mph6.1 kmh 30.09 in1019.0 mb 0.00 in0.0 mm 0.00 in0.0 mm 0.00 in0.0 mm
02:15 AM 50.0°F10.0°C 48.1°F8.9°C 93% 1.2 mph S1.9 kmh S 3.8 mph6.1 kmh 30.10 in1019.3 mb 0.00 in0.0 mm 0.00 in0.0 mm 0.00 in0.0 mm
02:10 AM 49.8°F9.9°C 48.2°F9.0°C 94% 0.5 mph S0.8 kmh S 3.1 mph5.0 kmh 30.10 in1019.3 mb 0.00 in0.0 mm 0.00 in0.0 mm 0.00 in0.0 mm
02:05 AM 49.6°F9.8°C 48.0°F8.9°C 94% 1.2 mph S1.9 kmh S 3.8 mph6.1 kmh 30.11 in1019.6 mb 0.00 in0.0 mm 0.00 in0.0 mm 0.00 in0.0 mm
02:00 AM 49.6°F9.8°C 47.7°F8.7°C 93% 1.6 mph S2.6 kmh S 3.8 mph6.1 kmh 30.10 in1019.3 mb 0.00 in0.0 mm 0.00 in0.0 mm 0.00 in0.0 mm
01:55 AM 49.5°F9.7°C 47.5°F8.6°C 93% 1.6 mph S2.6 kmh S 3.1 mph5.0 kmh 30.10 in1019.3 mb 0.00 in0.0 mm 0.00 in0.0 mm 0.00 in0.0 mm
01:50 AM 49.1°F9.5°C 47.2°F8.4°C 93% 1.7 mph S2.7 kmh S 3.1 mph5.0 kmh 30.11 in1019.6 mb 0.00 in0.0 mm 0.00 in0.0 mm 0.00 in0.0 mm
01:45 AM 49.1°F9.5°C 47.2°F8.4°C 93% 1.8 mph S2.9 kmh S 3.8 mph6.1 kmh 30.11 in1019.6 mb 0.00 in0.0 mm 0.00 in0.0 mm 0.00 in0.0 mm
01:40 AM 49.1°F9.5°C 47.2°F8.4°C 93% 1.8 mph S2.9 kmh S 3.8 mph6.1 kmh 30.11 in1019.6 mb 0.00 in0.0 mm 0.00 in0.0 mm 0.00 in0.0 mm
01:35 AM 48.9°F9.4°C 47.0°F8.3°C 93% 1.8 mph S2.9 kmh S 3.1 mph5.0 kmh 30.11 in1019.6 mb 0.00 in0.0 mm 0.00 in0.0 mm 0.00 in0.0 mm
01:30 AM 48.9°F9.4°C 47.0°F8.3°C 93% 2.0 mph S3.2 kmh S 3.8 mph6.1 kmh 30.10 in1019.3 mb 0.00 in0.0 mm 0.00 in0.0 mm 0.00 in0.0 mm
01:25 AM 48.7°F9.3°C 46.5°F8.1°C 92% 2.0 mph S3.2 kmh S 3.8 mph6.1 kmh 30.10 in1019.3 mb 0.00 in0.0 mm 0.00 in0.0 mm 0.00 in0.0 mm
01:20 AM 48.6°F9.2°C 46.3°F7.9°C 92% 2.2 mph S3.5 kmh S 4.5 mph7.2 kmh 30.11 in1019.6 mb 0.00 in0.0 mm 0.00 in0.0 mm 0.00 in0.0 mm
01:15 AM 48.4°F9.1°C 46.2°F7.9°C 92% 2.2 mph S3.5 kmh S 4.5 mph7.2 kmh 30.11 in1019.6 mb 0.00 in0.0 mm 0.00 in0.0 mm 0.00 in0.0 mm
01:10 AM 48.4°F9.1°C 46.2°F7.9°C 92% 1.7 mph S2.7 kmh S 3.8 mph6.1 kmh 30.11 in1019.6 mb 0.00 in0.0 mm 0.00 in0.0 mm 0.00 in0.0 mm
01:05 AM 48.0°F8.9°C 46.1°F7.8°C 93% 1.3 mph S2.1 kmh S 3.1 mph5.0 kmh 30.11 in1019.6 mb 0.00 in0.0 mm 0.00 in0.0 mm 0.00 in0.0 mm
01:00 AM 48.0°F8.9°C 46.1°F7.8°C 93% 1.4 mph S2.3 kmh S 3.1 mph5.0 kmh 30.11 in1019.6 mb 0.00 in0.0 mm 0.00 in0.0 mm 0.00 in0.0 mm
12:55 AM 47.8°F8.8°C 45.9°F7.7°C 93% 1.5 mph S2.4 kmh S 3.1 mph5.0 kmh 30.11 in1019.6 mb 0.00 in0.0 mm 0.00 in0.0 mm 0.00 in0.0 mm
12:50 AM 47.8°F8.8°C 45.6°F7.6°C 92% 1.6 mph S2.6 kmh S 3.8 mph6.1 kmh 30.11 in1019.6 mb 0.00 in0.0 mm 0.00 in0.0 mm 0.00 in0.0 mm
12:45 AM 47.8°F8.8°C 45.6°F7.6°C 92% 2.4 mph S3.9 kmh S 5.4 mph8.7 kmh 30.11 in1019.6 mb 0.00 in0.0 mm 0.00 in0.0 mm 0.00 in0.0 mm
12:40 AM 47.7°F8.7°C 45.5°F7.5°C 92% 3.3 mph S5.3 kmh S 6.0 mph9.7 kmh 30.11 in1019.6 mb 0.00 in0.0 mm 0.00 in0.0 mm 0.00 in0.0 mm
12:35 AM 47.7°F8.7°C 45.5°F7.5°C 92% 3.2 mph S5.1 kmh S 6.0 mph9.7 kmh 30.11 in1019.6 mb 0.00 in0.0 mm 0.00 in0.0 mm 0.00 in0.0 mm
12:30 AM 47.5°F8.6°C 45.3°F7.4°C 92% 2.6 mph S4.2 kmh S 6.0 mph9.7 kmh 30.11 in1019.6 mb 0.00 in0.0 mm 0.00 in0.0 mm 0.00 in0.0 mm
12:25 AM 47.5°F8.6°C 45.3°F7.4°C 92% 2.4 mph S3.9 kmh S 5.4 mph8.7 kmh 30.12 in1020.0 mb 0.00 in0.0 mm 0.00 in0.0 mm 0.00 in0.0 mm
12:20 AM 47.5°F8.6°C 45.0°F7.2°C 91% 2.7 mph S4.3 kmh S 5.4 mph8.7 kmh 30.12 in1020.0 mb 0.00 in0.0 mm 0.00 in0.0 mm 0.00 in0.0 mm
12:15 AM 47.5°F8.6°C 45.0°F7.2°C 91% 2.7 mph S4.3 kmh S 5.4 mph8.7 kmh 30.12 in1020.0 mb 0.00 in0.0 mm 0.00 in0.0 mm 0.00 in0.0 mm
12:10 AM 47.7°F8.7°C 44.9°F7.2°C 90% 2.3 mph SSW3.7 kmh SSW 4.5 mph7.2 kmh 30.11 in1019.6 mb 0.00 in0.0 mm 0.00 in0.0 mm 0.00 in0.0 mm
12:05 AM 48.0°F8.9°C 45.2°F7.3°C 90% 2.1 mph SSW3.4 kmh SSW 4.5 mph7.2 kmh 30.11 in1019.6 mb 0.00 in0.0 mm 0.00 in0.0 mm 0.00 in0.0 mm
12:00 AM 48.2°F9.0°C 45.1°F7.3°C 89% 2.5 mph S4.0 kmh S 6.0 mph9.7 kmh 30.11 in1019.6 mb 0.00 in0.0 mm 0.00 in0.0 mm 0.00 in0.0 mm